Time;durP1;ratioP1;P1;durP2;ratioP2;P2;SDS_P1;SDS_P2;PMS_P1;PMS_P2;Temp;Humidity;BMP_temperature;BMP_pressure;BME280_temperature;BME280_humidity;BME280_pressure;Samples;Min_cycle;Max_cycle;Signal;HPM_P1;HPM_P2
2022/05/07 00:00:41;;;;;;;5.30;4.80;;;;;;;;;;4878888;29;20427;-73
2022/05/07 00:03:07;;;;;;;6.05;4.32;;;;;;;;;;4879334;29;20044;-74
2022/05/07 00:05:33;;;;;;;5.25;4.65;;;;;;;;;;4878576;29;20108;-73
2022/05/07 00:07:59;;;;;;;4.20;3.90;;;;;;;;;;4895596;29;20048;-74
2022/05/07 00:10:25;;;;;;;5.97;4.63;;;;;;;;;;4878737;29;20044;-73
2022/05/07 00:12:50;;;;;;;5.03;4.53;;;;;;;;;;4878462;29;20424;-73
2022/05/07 00:15:16;;;;;;;8.63;3.80;;;;;;;;;;4895054;29;20403;-73
2022/05/07 00:20:27;;;;;;;4.68;4.10;;;;;;;;;;4895213;29;20048;-73
2022/05/07 00:22:56;;;;;;;4.75;3.92;;;;;;;;;;4894913;29;20052;-72
2022/05/07 00:25:23;;;;;;;4.82;4.10;;;;;;;;;;4894797;29;20048;-74
2022/05/07 00:27:49;;;;;;;11.02;4.25;;;;;;;;;;4894365;29;20079;-72
2022/05/07 00:30:14;;;;;;;10.20;4.30;;;;;;;;;;4895144;29;20098;-72
2022/05/07 00:32:40;;;;;;;10.68;4.05;;;;;;;;;;4894794;29;20052;-73
2022/05/07 00:35:10;;;;;;;4.22;3.83;;;;;;;;;;4878422;29;20044;-73
2022/05/07 00:37:36;;;;;;;5.07;3.70;;;;;;;;;;4893728;29;20124;-74
2022/05/07 00:40:02;;;;;;;4.78;3.33;;;;;;;;;;4893521;29;20052;-73
2022/05/07 00:42:28;;;;;;;5.28;4.00;;;;;;;;;;4878158;29;20508;-74
2022/05/07 00:44:54;;;;;;;7.35;3.70;;;;;;;;;;4894652;29;20176;-73
2022/05/07 00:47:30;;;;;;;3.95;3.53;;;;;;;;;;4878184;29;20049;-74
2022/05/07 00:51:33;;;;;;;4.57;3.58;;;;;;;;;;4878083;29;20507;-75
2022/05/07 00:52:45;;;;;;;4.20;3.80;;;;;;;;;;4894733;29;20119;-74
2022/05/07 00:55:11;;;;;;;5.47;3.90;;;;;;;;;;4877970;29;20774;-74
2022/05/07 00:57:37;;;;;;;3.80;3.47;;;;;;;;;;4894717;29;20044;-75
2022/05/07 01:00:04;;;;;;;4.80;3.65;;;;;;;;;;4877935;29;20075;-73
2022/05/07 01:02:30;;;;;;;4.88;3.75;;;;;;;;;;4877717;29;20053;-74
2022/05/07 01:04:56;;;;;;;4.93;3.53;;;;;;;;;;4892991;29;20041;-74
2022/05/07 01:07:22;;;;;;;3.85;3.33;;;;;;;;;;4877747;29;20207;-73
2022/05/07 01:09:48;;;;;;;7.10;3.05;;;;;;;;;;4877588;29;20139;-73
2022/05/07 01:12:14;;;;;;;6.25;3.35;;;;;;;;;;4878018;29;20124;-73
2022/05/07 01:14:41;;;;;;;3.80;3.50;;;;;;;;;;4877795;29;20056;-74
2022/05/07 01:17:07;;;;;;;9.32;3.72;;;;;;;;;;4879867;29;20055;-73
2022/05/07 01:19:35;;;;;;;3.92;3.40;;;;;;;;;;4899425;29;20056;-72
2022/05/07 01:22:04;;;;;;;11.10;3.30;;;;;;;;;;4901446;29;20055;-74
2022/05/07 01:24:30;;;;;;;5.07;3.10;;;;;;;;;;4903759;29;20618;-75
2022/05/07 01:26:57;;;;;;;8.02;3.35;;;;;;;;;;4886098;29;20089;-73
2022/05/07 01:29:24;;;;;;;14.85;3.60;;;;;;;;;;4862698;29;20067;-75
2022/05/07 01:31:50;;;;;;;5.18;3.30;;;;;;;;;;4877420;29;20084;-74
2022/05/07 01:34:16;;;;;;;5.22;4.03;;;;;;;;;;4877726;29;20751;-74
2022/05/07 01:36:48;;;;;;;4.05;3.55;;;;;;;;;;4892789;29;20045;-73
2022/05/07 01:39:16;;;;;;;2.97;2.75;;;;;;;;;;4877494;29;20063;-74
2022/05/07 01:41:42;;;;;;;11.55;3.83;;;;;;;;;;4893600;29;20053;-73
2022/05/07 01:44:08;;;;;;;4.85;3.30;;;;;;;;;;4861445;29;20049;-73
2022/05/07 01:49:24;;;;;;;3.60;3.30;;;;;;;;;;4879935;29;20116;-73
2022/05/07 01:51:50;;;;;;;5.57;3.50;;;;;;;;;;4892236;29;20052;-74
2022/05/07 01:54:16;;;;;;;3.45;3.15;;;;;;;;;;4876816;29;20124;-73
2022/05/07 01:56:46;;;;;;;11.57;3.45;;;;;;;;;;4892151;29;20048;-73
2022/05/07 12:55:41;;;;;;;2.78;2.53;;;;;;;;;;1427770;26;20122;-73
2022/05/07 12:58:09;;;;;;;5.68;2.50;;;;;;;;;;4946342;29;20063;-74
2022/05/07 13:00:35;;;;;;;4.68;2.65;;;;;;;;;;4925388;29;20042;-74
2022/05/07 13:03:02;;;;;;;6.97;2.50;;;;;;;;;;4941603;29;20056;-75
2022/05/07 13:05:28;;;;;;;3.17;2.90;;;;;;;;;;4921416;29;20040;-76
2022/05/07 13:07:54;;;;;;;6.80;2.42;;;;;;;;;;4933331;29;20043;-76
2022/05/07 13:10:20;;;;;;;3.55;2.80;;;;;;;;;;4933048;29;20039;-76
2022/05/07 13:12:46;;;;;;;3.00;2.40;;;;;;;;;;4935860;29;20051;-76
2022/05/07 13:15:12;;;;;;;3.60;2.58;;;;;;;;;;4951793;29;20526;-75
2022/05/07 13:17:38;;;;;;;5.10;3.00;;;;;;;;;;4952264;29;20050;-76
2022/05/07 13:20:04;;;;;;;4.40;2.80;;;;;;;;;;4951945;29;20051;-76
2022/05/07 13:22:32;;;;;;;5.72;3.03;;;;;;;;;;4934686;29;20158;-75
2022/05/07 13:24:58;;;;;;;6.20;2.60;;;;;;;;;;4952074;29;20039;-75
2022/05/07 13:27:24;;;;;;;5.10;2.92;;;;;;;;;;4951757;29;20058;-75
2022/05/07 13:29:50;;;;;;;5.55;2.70;;;;;;;;;;4951734;29;20139;-75
2022/05/07 13:32:16;;;;;;;3.88;2.60;;;;;;;;;;4950798;29;20066;-75
2022/05/07 13:34:42;;;;;;;5.40;2.50;;;;;;;;;;4951830;28;20035;-76
2022/05/07 13:37:08;;;;;;;4.80;2.42;;;;;;;;;;4955088;29;20074;-75
2022/05/07 13:39:34;;;;;;;3.60;2.60;;;;;;;;;;4957264;29;20050;-76
2022/05/07 13:42:03;;;;;;;4.15;2.50;;;;;;;;;;4965323;29;20135;-75
2022/05/07 13:44:28;;;;;;;2.55;2.35;;;;;;;;;;4945715;29;20043;-76
2022/05/07 13:46:54;;;;;;;3.88;2.60;;;;;;;;;;4953109;29;20475;-75
2022/05/07 13:49:20;;;;;;;3.25;2.58;;;;;;;;;;4951613;29;20066;-75
2022/05/07 13:51:46;;;;;;;3.65;2.90;;;;;;;;;;4951236;29;20111;-74
2022/05/07 13:54:12;;;;;;;2.60;2.40;;;;;;;;;;4951070;29;20039;-75
2022/05/07 13:56:38;;;;;;;5.15;2.15;;;;;;;;;;4949794;29;20061;-75
2022/05/07 13:59:05;;;;;;;3.03;2.80;;;;;;;;;;4932411;29;20072;-76
2022/05/07 14:01:31;;;;;;;3.67;3.20;;;;;;;;;;4949112;29;20581;-75
2022/05/07 14:03:58;;;;;;;5.80;2.50;;;;;;;;;;4932099;29;20098;-75
2022/05/07 14:06:24;;;;;;;10.10;3.17;;;;;;;;;;4931292;29;20047;-76
2022/05/07 14:08:51;;;;;;;3.53;2.50;;;;;;;;;;4932189;29;20532;-76
2022/05/07 14:11:17;;;;;;;2.97;2.65;;;;;;;;;;4931931;29;20439;-74
2022/05/07 14:13:43;;;;;;;5.03;2.42;;;;;;;;;;4951380;29;20058;-75
2022/05/07 14:16:09;;;;;;;2.60;2.40;;;;;;;;;;4950655;29;20047;-74
2022/05/07 14:18:35;;;;;;;2.72;2.53;;;;;;;;;;4917826;29;20054;-74
2022/05/07 14:21:01;;;;;;;3.35;2.70;;;;;;;;;;4950767;29;20054;-76
2022/05/07 14:23:27;;;;;;;5.70;2.80;;;;;;;;;;4933993;29;20070;-76
2022/05/07 14:25:53;;;;;;;5.95;2.72;;;;;;;;;;4950549;29;20039;-76
2022/05/07 14:28:19;;;;;;;3.40;2.70;;;;;;;;;;4950886;29;20055;-75
2022/05/07 14:30:45;;;;;;;3.75;2.70;;;;;;;;;;4933678;29;20035;-75
2022/05/07 14:33:11;;;;;;;8.32;2.63;;;;;;;;;;4950480;29;20537;-75
2022/05/07 14:35:37;;;;;;;2.80;2.60;;;;;;;;;;4950772;29;20182;-75
2022/05/07 14:38:08;;;;;;;5.10;2.35;;;;;;;;;;4950845;29;20126;-74
2022/05/07 14:40:38;;;;;;;3.08;2.40;;;;;;;;;;4919180;29;20421;-73
2022/05/07 14:43:04;;;;;;;4.28;2.65;;;;;;;;;;4950776;29;20145;-75
2022/05/07 14:45:30;;;;;;;3.95;3.00;;;;;;;;;;4917723;29;20039;-73
2022/05/07 14:47:57;;;;;;;5.32;3.30;;;;;;;;;;4933194;29;20047;-74
2022/05/07 14:50:23;;;;;;;3.25;2.63;;;;;;;;;;4950866;29;20457;-73
2022/05/07 14:52:49;;;;;;;6.43;4.10;;;;;;;;;;4950454;29;20056;-73
2022/05/07 14:55:15;;;;;;;2.88;2.60;;;;;;;;;;4932799;29;20142;-73
2022/05/07 14:57:41;;;;;;;8.13;3.10;;;;;;;;;;4950492;29;20035;-74
2022/05/07 15:00:09;;;;;;;3.75;3.03;;;;;;;;;;4950286;29;20111;-75
2022/05/07 15:02:36;;;;;;;4.80;3.50;;;;;;;;;;4917502;29;20054;-73
2022/05/07 15:05:02;;;;;;;5.15;3.42;;;;;;;;;;4950588;29;20110;-73
2022/05/07 15:07:28;;;;;;;5.75;2.63;;;;;;;;;;4950078;29;20070;-74
2022/05/07 15:12:39;;;;;;;10.52;3.20;;;;;;;;;;4950617;29;20040;-74
2022/05/07 15:15:05;;;;;;;4.75;2.50;;;;;;;;;;4950551;29;20454;-73
2022/05/07 15:17:31;;;;;;;3.25;3.00;;;;;;;;;;4950715;29;20134;-73
2022/05/07 15:19:57;;;;;;;5.82;2.80;;;;;;;;;;4950710;29;20542;-74
2022/05/07 15:22:23;;;;;;;7.60;2.80;;;;;;;;;;4932906;29;20522;-73
2022/05/07 15:24:49;;;;;;;8.63;2.80;;;;;;;;;;4933276;29;20039;-74
2022/05/07 15:27:15;;;;;;;7.15;3.40;;;;;;;;;;4950130;29;20210;-74
2022/05/07 15:29:41;;;;;;;4.97;3.38;;;;;;;;;;4950294;29;20069;-74
2022/05/07 15:37:36;;;;;;;7.78;3.78;;;;;;;;;;4950604;29;20043;-74
2022/05/07 15:40:04;;;;;;;6.57;3.30;;;;;;;;;;4950279;29;20514;-73
2022/05/07 15:42:30;;;;;;;7.30;3.30;;;;;;;;;;4949038;29;20059;-73
2022/05/07 15:44:56;;;;;;;5.57;3.47;;;;;;;;;;4949631;29;20130;-73
2022/05/07 15:47:21;;;;;;;6.20;3.45;;;;;;;;;;4949779;29;20047;-73
2022/05/07 15:49:48;;;;;;;8.07;3.40;;;;;;;;;;4950267;29;20070;-73
2022/05/07 15:52:14;;;;;;;7.32;3.70;;;;;;;;;;4932461;29;20047;-72
2022/05/07 15:54:41;;;;;;;5.07;3.22;;;;;;;;;;4948888;29;20043;-72
2022/05/07 15:57:07;;;;;;;4.53;3.20;;;;;;;;;;4950911;28;20043;-73
2022/05/07 15:59:36;;;;;;;6.00;2.80;;;;;;;;;;4953297;29;20534;-72
2022/05/07 16:02:02;;;;;;;4.65;3.10;;;;;;;;;;4952607;29;20109;-72
2022/05/07 16:04:28;;;;;;;4.32;3.30;;;;;;;;;;4951900;29;20070;-73
2022/05/07 16:06:54;;;;;;;5.15;3.55;;;;;;;;;;4952967;29;20047;-72
2022/05/07 16:09:20;;;;;;;6.18;3.92;;;;;;;;;;4952657;29;20054;-73
2022/05/07 16:11:46;;;;;;;5.32;3.08;;;;;;;;;;4953101;29;20043;-73
2022/05/07 16:14:12;;;;;;;6.30;3.22;;;;;;;;;;4952384;29;20106;-72
2022/05/07 16:16:39;;;;;;;4.15;3.38;;;;;;;;;;4935453;29;20429;-72
2022/05/07 16:19:04;;;;;;;4.93;3.17;;;;;;;;;;4945985;29;20045;-75
2022/05/07 16:21:30;;;;;;;8.52;4.20;;;;;;;;;;4948914;29;20047;-72
2022/05/07 16:26:43;;;;;;;6.05;5.35;;;;;;;;;;4951644;29;20106;-72
2022/05/07 16:29:10;;;;;;;6.00;4.95;;;;;;;;;;4952490;29;20418;-73
2022/05/07 16:31:36;;;;;;;4.57;3.65;;;;;;;;;;4952247;29;20043;-73
2022/05/07 16:34:02;;;;;;;6.65;3.08;;;;;;;;;;4952414;29;20049;-73
2022/05/07 16:36:28;;;;;;;10.23;3.97;;;;;;;;;;4952519;29;20183;-72
2022/05/07 16:38:53;;;;;;;8.23;3.90;;;;;;;;;;4952489;29;20050;-73
2022/05/07 16:41:20;;;;;;;8.02;6.32;;;;;;;;;;4952595;29;20043;-73
2022/05/07 16:43:45;;;;;;;8.05;6.28;;;;;;;;;;4953287;29;20406;-71
2022/05/07 16:46:12;;;;;;;9.63;6.70;;;;;;;;;;4935612;29;20051;-72
2022/05/07 16:48:38;;;;;;;9.73;5.35;;;;;;;;;;4952350;29;20038;-72
2022/05/07 16:51:04;;;;;;;6.43;4.57;;;;;;;;;;4952701;29;20047;-72
2022/05/07 16:53:30;;;;;;;7.18;3.97;;;;;;;;;;4952114;29;20038;-72
2022/05/07 16:55:56;;;;;;;6.82;4.60;;;;;;;;;;4952623;29;20062;-72
2022/05/07 16:58:22;;;;;;;7.80;4.40;;;;;;;;;;4934882;29;20135;-72
2022/05/07 17:00:48;;;;;;;7.95;4.15;;;;;;;;;;4952986;29;20043;-73
2022/05/07 17:03:15;;;;;;;11.07;4.32;;;;;;;;;;4952514;29;20075;-73
2022/05/07 17:05:41;;;;;;;13.32;4.05;;;;;;;;;;4952678;29;20074;-73
2022/05/07 17:08:09;;;;;;;6.85;4.13;;;;;;;;;;4934441;29;20522;-72
2022/05/07 17:10:35;;;;;;;10.45;4.40;;;;;;;;;;4951861;29;20123;-73
2022/05/07 17:13:01;;;;;;;8.05;4.68;;;;;;;;;;4951759;29;20541;-73
2022/05/07 17:15:26;;;;;;;10.50;4.57;;;;;;;;;;4948288;29;20035;-74
2022/05/07 17:17:54;;;;;;;9.52;4.75;;;;;;;;;;4952261;29;20055;-73
2022/05/07 17:20:20;;;;;;;8.80;5.30;;;;;;;;;;4944134;29;20187;-72
2022/05/07 17:22:47;;;;;;;12.80;5.70;;;;;;;;;;4945910;29;20053;-72
2022/05/07 17:25:12;;;;;;;6.18;5.10;;;;;;;;;;4942925;29;20047;-73
2022/05/07 17:27:38;;;;;;;6.90;5.28;;;;;;;;;;4945760;29;20202;-72
2022/05/07 17:30:04;;;;;;;7.25;4.80;;;;;;;;;;4938462;29;20501;-72
2022/05/07 17:32:30;;;;;;;7.68;5.65;;;;;;;;;;4944822;29;20116;-72
2022/05/07 17:34:56;;;;;;;8.18;4.55;;;;;;;;;;4936686;29;20082;-72
2022/05/07 17:37:22;;;;;;;12.13;4.60;;;;;;;;;;4938312;28;20047;-71
2022/05/07 17:39:47;;;;;;;10.07;4.60;;;;;;;;;;4945448;29;20039;-72
2022/05/07 17:42:13;;;;;;;5.68;4.70;;;;;;;;;;4941409;29;20086;-72
2022/05/07 17:44:39;;;;;;;11.00;5.43;;;;;;;;;;4937679;29;20047;-71
2022/05/07 17:47:05;;;;;;;14.05;6.03;;;;;;;;;;4939084;29;20050;-71
2022/05/07 17:49:31;;;;;;;18.23;4.95;;;;;;;;;;4938777;29;20050;-70
2022/05/07 17:51:59;;;;;;;13.18;5.18;;;;;;;;;;4940421;29;20137;-71
2022/05/07 17:54:25;;;;;;;14.63;5.32;;;;;;;;;;4938416;29;20035;-71
2022/05/07 17:56:51;;;;;;;10.88;5.03;;;;;;;;;;4938192;29;20105;-71
2022/05/07 17:59:17;;;;;;;7.20;4.68;;;;;;;;;;4937772;29;20426;-70
2022/05/07 18:01:47;;;;;;;9.50;4.97;;;;;;;;;;4935222;29;20442;-71
2022/05/07 18:04:15;;;;;;;8.15;5.45;;;;;;;;;;4938301;29;20063;-71
2022/05/07 18:06:42;;;;;;;10.55;4.95;;;;;;;;;;4936671;29;20076;-70
2022/05/07 18:09:09;;;;;;;8.95;5.10;;;;;;;;;;4924102;29;20078;-70
2022/05/07 18:11:35;;;;;;;8.38;5.05;;;;;;;;;;4939692;29;20035;-72
2022/05/07 18:14:01;;;;;;;17.35;5.05;;;;;;;;;;4939264;29;20134;-71
2022/05/07 18:16:27;;;;;;;10.30;5.07;;;;;;;;;;4939122;29;20040;-71
2022/05/07 18:18:52;;;;;;;15.43;5.05;;;;;;;;;;4921412;29;20050;-71
2022/05/07 18:21:18;;;;;;;8.43;4.88;;;;;;;;;;4936857;29;20101;-71
2022/05/07 18:23:44;;;;;;;12.93;5.95;;;;;;;;;;4938294;29;20058;-71
2022/05/07 18:26:10;;;;;;;10.10;5.95;;;;;;;;;;4944105;29;20039;-71
2022/05/07 18:28:37;;;;;;;15.20;6.03;;;;;;;;;;4921712;29;20207;-71
2022/05/07 18:31:03;;;;;;;13.48;6.57;;;;;;;;;;4936842;29;20134;-71
2022/05/07 18:33:29;;;;;;;9.35;5.38;;;;;;;;;;4937993;29;20142;-71
2022/05/07 18:42:47;;;;;;;12.43;6.10;;;;;;;;;;4936357;29;20049;-71
2022/05/07 18:44:10;;;;;;;8.48;5.50;;;;;;;;;;4939809;29;20057;-72
2022/05/07 18:46:38;;;;;;;12.57;4.97;;;;;;;;;;4936242;29;20036;-71
2022/05/07 18:49:08;;;;;;;11.45;5.00;;;;;;;;;;4938564;29;20602;-71
2022/05/07 18:51:34;;;;;;;8.88;5.05;;;;;;;;;;4939279;29;20110;-72
2022/05/07 18:54:02;;;;;;;9.38;5.15;;;;;;;;;;4941631;29;20042;-71
2022/05/07 18:59:12;;;;;;;15.60;5.75;;;;;;;;;;4942033;29;20165;-71
2022/05/07 19:01:38;;;;;;;14.98;6.65;;;;;;;;;;4941802;29;20130;-69
2022/05/07 19:04:04;;;;;;;8.25;5.97;;;;;;;;;;4929602;29;20544;-69
2022/05/07 19:06:31;;;;;;;17.30;6.95;;;;;;;;;;4944342;29;20077;-70
2022/05/07 19:08:57;;;;;;;10.40;6.15;;;;;;;;;;4943960;29;20078;-70
2022/05/07 19:11:27;;;;;;;11.73;6.68;;;;;;;;;;4944984;29;20122;-71
2022/05/07 19:13:57;;;;;;;7.55;5.47;;;;;;;;;;4927058;29;20631;-71
2022/05/07 19:16:23;;;;;;;18.08;5.85;;;;;;;;;;4943133;29;20045;-71
2022/05/07 19:18:49;;;;;;;15.15;6.88;;;;;;;;;;4941589;29;20051;-71
2022/05/07 19:21:16;;;;;;;14.57;6.90;;;;;;;;;;4945752;29;20050;-71
2022/05/07 19:23:42;;;;;;;8.43;6.28;;;;;;;;;;4945127;29;20048;-71
2022/05/07 19:26:08;;;;;;;9.00;6.25;;;;;;;;;;4944988;29;20031;-72
2022/05/07 19:28:36;;;;;;;9.73;6.60;;;;;;;;;;4946895;29;20095;-72
2022/05/07 19:31:03;;;;;;;9.40;5.95;;;;;;;;;;4945287;28;20035;-72
2022/05/07 19:33:29;;;;;;;9.38;5.97;;;;;;;;;;4949560;29;20058;-71
2022/05/07 19:35:56;;;;;;;8.93;5.93;;;;;;;;;;4948960;29;20094;-71
2022/05/07 19:38:22;;;;;;;8.13;5.18;;;;;;;;;;4948131;29;20510;-72
2022/05/07 19:40:47;;;;;;;8.88;5.57;;;;;;;;;;4941596;29;20099;-70
2022/05/07 19:43:14;;;;;;;11.35;5.72;;;;;;;;;;4949449;29;20110;-70
2022/05/07 19:45:40;;;;;;;15.00;5.70;;;;;;;;;;4949541;29;20534;-70
2022/05/07 19:48:06;;;;;;;9.27;5.03;;;;;;;;;;4949965;29;20070;-71
2022/05/07 19:50:32;;;;;;;7.95;5.20;;;;;;;;;;4926915;29;20503;-71
2022/05/07 19:53:01;;;;;;;13.25;5.20;;;;;;;;;;4948435;29;20043;-72
2022/05/07 19:55:27;;;;;;;9.18;5.32;;;;;;;;;;4947430;29;20074;-72
2022/05/07 19:57:53;;;;;;;9.50;4.70;;;;;;;;;;4946942;29;20518;-72
2022/05/07 20:00:19;;;;;;;14.45;5.30;;;;;;;;;;4948254;29;20078;-71
2022/05/07 20:02:45;;;;;;;5.18;4.70;;;;;;;;;;4946659;29;20146;-73
2022/05/07 20:05:11;;;;;;;8.15;4.78;;;;;;;;;;4945831;29;20039;-71
2022/05/07 20:07:38;;;;;;;7.35;4.65;;;;;;;;;;4945472;29;20043;-72
2022/05/07 20:10:05;;;;;;;8.70;4.57;;;;;;;;;;4948973;29;20123;-73
2022/05/07 20:12:36;;;;;;;8.00;4.57;;;;;;;;;;4944977;29;20054;-73
2022/05/07 20:15:03;;;;;;;7.28;4.93;;;;;;;;;;4947585;29;20039;-73
2022/05/07 20:17:29;;;;;;;6.53;5.20;;;;;;;;;;4948449;29;20287;-72
2022/05/07 20:19:55;;;;;;;9.38;4.78;;;;;;;;;;4944583;29;20047;-78
2022/05/07 20:22:21;;;;;;;5.57;4.53;;;;;;;;;;4942289;29;20051;-78
2022/05/07 20:24:47;;;;;;;10.02;4.93;;;;;;;;;;4948963;29;20043;-77
2022/05/07 20:27:13;;;;;;;8.45;5.07;;;;;;;;;;4952083;28;20088;-77
2022/05/07 20:29:39;;;;;;;4.97;4.45;;;;;;;;;;4948148;28;20111;-78
2022/05/07 20:32:10;;;;;;;7.95;4.80;;;;;;;;;;4942828;29;20040;-80
2022/05/07 20:34:36;;;;;;;11.70;5.70;;;;;;;;;;4927971;29;20389;-78
2022/05/07 20:37:03;;;;;;;5.20;4.70;;;;;;;;;;4952585;29;20663;-79
2022/05/07 20:39:29;;;;;;;5.88;5.35;;;;;;;;;;4946429;29;20043;-79
2022/05/07 20:41:55;;;;;;;9.15;6.60;;;;;;;;;;4941632;29;20134;-77
2022/05/07 20:47:05;;;;;;;7.35;4.95;;;;;;;;;;4947455;29;20542;-79
2022/05/07 20:49:31;;;;;;;15.23;5.88;;;;;;;;;;4943973;28;20050;-80
2022/05/07 20:51:57;;;;;;;5.43;4.93;;;;;;;;;;4926110;29;20089;-79
2022/05/07 20:54:23;;;;;;;7.53;4.93;;;;;;;;;;4941892;29;20523;-78
2022/05/07 20:56:49;;;;;;;17.30;4.78;;;;;;;;;;4949620;29;20142;-77
2022/05/07 20:59:15;;;;;;;6.20;4.90;;;;;;;;;;4931583;29;20147;-78
2022/05/07 21:01:41;;;;;;;6.32;4.88;;;;;;;;;;4942842;29;20039;-77
2022/05/07 21:04:09;;;;;;;10.85;4.53;;;;;;;;;;4942921;29;20058;-78
2022/05/07 21:06:35;;;;;;;8.65;4.40;;;;;;;;;;4945113;29;20070;-76
2022/05/07 21:09:01;;;;;;;6.97;4.43;;;;;;;;;;4947044;29;20540;-77
2022/05/07 21:11:27;;;;;;;16.75;4.97;;;;;;;;;;4946248;29;20035;-77
2022/05/07 21:13:54;;;;;;;8.55;5.88;;;;;;;;;;4941894;29;20102;-77
2022/05/07 21:16:20;;;;;;;10.55;4.60;;;;;;;;;;4943365;28;20048;-78
2022/05/07 21:18:46;;;;;;;11.80;4.80;;;;;;;;;;4946566;29;20046;-76
2022/05/07 21:21:11;;;;;;;6.43;4.80;;;;;;;;;;4944504;29;20074;-79
2022/05/07 21:23:38;;;;;;;8.32;4.72;;;;;;;;;;4935443;29;20454;-77
2022/05/07 21:28:49;;;;;;;6.57;4.70;;;;;;;;;;4933056;29;20066;-77
2022/05/07 21:31:14;;;;;;;13.20;5.47;;;;;;;;;;4940365;29;20043;-76
2022/05/07 21:33:41;;;;;;;7.50;4.13;;;;;;;;;;4951339;29;20055;-76
2022/05/07 21:36:07;;;;;;;9.95;5.28;;;;;;;;;;4952210;29;20046;-76
2022/05/07 21:38:33;;;;;;;9.45;5.63;;;;;;;;;;4951855;29;20051;-78
2022/05/07 21:40:59;;;;;;;5.82;4.90;;;;;;;;;;4952150;29;20043;-78
2022/05/07 21:43:28;;;;;;;12.85;6.00;;;;;;;;;;4951642;29;20146;-78
2022/05/07 21:45:54;;;;;;;8.75;5.50;;;;;;;;;;4952063;29;20125;-78
2022/05/07 21:48:20;;;;;;;8.48;6.50;;;;;;;;;;4952059;29;20292;-79
2022/05/07 21:53:22;;;;;;;9.00;5.68;;;;;;;;;;4932803;29;20115;-77
2022/05/07 21:55:48;;;;;;;12.40;5.40;;;;;;;;;;4932219;29;20082;-78
2022/05/07 21:58:14;;;;;;;8.48;5.07;;;;;;;;;;4932629;29;20135;-76
2022/05/07 22:00:43;;;;;;;6.18;5.57;;;;;;;;;;4937348;29;20039;-79
2022/05/07 22:03:12;;;;;;;7.03;4.93;;;;;;;;;;4934173;29;20066;-78
2022/05/07 22:05:39;;;;;;;8.68;4.80;;;;;;;;;;4951426;29;20047;-79
2022/05/07 22:08:05;;;;;;;9.45;5.30;;;;;;;;;;4951471;29;20058;-78
2022/05/07 22:10:31;;;;;;;9.13;4.53;;;;;;;;;;4951293;29;20079;-78
2022/05/07 22:12:57;;;;;;;7.53;4.90;;;;;;;;;;4951810;29;20070;-77
2022/05/07 22:15:23;;;;;;;7.35;4.35;;;;;;;;;;4952182;29;20043;-77
2022/05/07 22:17:49;;;;;;;7.88;4.45;;;;;;;;;;4952558;29;20518;-77
2022/05/07 22:20:16;;;;;;;8.45;3.88;;;;;;;;;;4956163;29;20094;-77
2022/05/07 22:22:42;;;;;;;10.82;3.83;;;;;;;;;;4945316;29;20102;-78
2022/05/07 22:25:08;;;;;;;6.40;4.45;;;;;;;;;;4964745;29;20055;-78
2022/05/07 22:27:34;;;;;;;5.35;3.88;;;;;;;;;;4959455;29;20118;-76
2022/05/07 22:30:00;;;;;;;6.20;3.75;;;;;;;;;;4965668;29;20051;-79
2022/05/07 22:32:30;;;;;;;4.30;3.83;;;;;;;;;;4951620;29;20119;-78
2022/05/07 22:34:56;;;;;;;4.93;4.03;;;;;;;;;;4951361;29;20054;-79
2022/05/07 22:37:22;;;;;;;8.75;3.70;;;;;;;;;;4951328;29;20502;-78
2022/05/07 22:39:48;;;;;;;7.63;4.22;;;;;;;;;;4950863;29;20048;-79
2022/05/07 22:42:14;;;;;;;8.10;4.40;;;;;;;;;;4951269;29;20047;-78
2022/05/07 22:44:40;;;;;;;10.60;4.60;;;;;;;;;;4950687;29;20561;-78
2022/05/07 22:47:06;;;;;;;9.43;4.25;;;;;;;;;;4933834;29;20351;-78
2022/05/07 22:49:32;;;;;;;5.05;4.55;;;;;;;;;;4950678;29;20053;-78
2022/05/07 22:51:58;;;;;;;5.43;3.95;;;;;;;;;;4950941;29;20138;-78
2022/05/07 22:54:24;;;;;;;7.47;4.13;;;;;;;;;;4950751;29;20466;-80
2022/05/07 22:56:50;;;;;;;9.80;4.50;;;;;;;;;;4950550;29;20051;-79
2022/05/07 22:59:15;;;;;;;6.05;3.88;;;;;;;;;;4950741;29;20043;-78
2022/05/07 23:01:41;;;;;;;12.50;4.15;;;;;;;;;;4950567;29;20039;-78
2022/05/07 23:04:07;;;;;;;7.65;4.60;;;;;;;;;;4950831;29;20047;-78
2022/05/07 23:06:33;;;;;;;4.55;4.15;;;;;;;;;;4949825;28;20430;-78
2022/05/07 23:08:59;;;;;;;7.22;5.57;;;;;;;;;;4950675;29;20533;-78
2022/05/07 23:11:25;;;;;;;13.10;5.35;;;;;;;;;;4950889;29;20094;-79
2022/05/07 23:13:51;;;;;;;9.13;4.90;;;;;;;;;;4933510;29;20043;-78
2022/05/07 23:16:17;;;;;;;7.00;5.32;;;;;;;;;;4950677;29;20043;-79
2022/05/07 23:18:43;;;;;;;7.93;5.32;;;;;;;;;;4950396;29;20050;-79
2022/05/07 23:21:11;;;;;;;6.95;5.90;;;;;;;;;;4933989;29;20035;-78
2022/05/07 23:23:37;;;;;;;6.57;5.40;;;;;;;;;;4949437;29;20065;-78
2022/05/07 23:26:03;;;;;;;10.02;5.47;;;;;;;;;;4950599;29;20035;-77
2022/05/07 23:28:28;;;;;;;11.35;6.00;;;;;;;;;;4933126;29;20047;-77
2022/05/07 23:30:54;;;;;;;12.15;7.38;;;;;;;;;;4950364;29;20035;-77
2022/05/07 23:33:22;;;;;;;15.55;9.18;;;;;;;;;;4933243;29;20047;-78
2022/05/07 23:35:48;;;;;;;11.65;10.07;;;;;;;;;;4950178;29;20050;-77
2022/05/07 23:38:17;;;;;;;8.73;6.75;;;;;;;;;;4950277;29;20047;-77
2022/05/07 23:40:43;;;;;;;10.52;7.07;;;;;;;;;;4950209;29;20406;-78
2022/05/07 23:43:09;;;;;;;13.85;6.45;;;;;;;;;;4950505;29;20105;-78
2022/05/07 23:45:35;;;;;;;6.82;6.00;;;;;;;;;;4933071;29;20553;-76
2022/05/07 23:48:00;;;;;;;10.30;5.63;;;;;;;;;;4950309;29;20485;-76
2022/05/07 23:50:26;;;;;;;7.97;4.93;;;;;;;;;;4950285;29;20046;-78
2022/05/07 23:52:53;;;;;;;5.55;3.97;;;;;;;;;;4950258;29;20065;-77
2022/05/07 23:55:19;;;;;;;5.85;4.22;;;;;;;;;;4950339;29;20087;-79
2022/05/07 23:57:45;;;;;;;6.10;5.32;;;;;;;;;;4950391;29;20546;-77
